Gough, Georgia
Current Conditions -  °F | °C
As of 1:53 PM on Friday 31 Oct 2014 (Local Time) from KAGS Reporting Station
Broken Clouds Broken Clouds  
Wind Chill: 68°   Ceiling: 7500
Heat Index: 68°   Visibility: 10mi
Dew Point: 43°   Wind: 5mph
Humidity: 40%   Direction: 140°SE
Pressure: 29.83"   Gusts: NA
Location:  33.09°N, 82.23°W
Report Text: KAGS 311753Z 14004KT 10SM SCT060 BKN075 20/06 A2983 RMK AO2 SLP101 T02000061 10206 20039 58029
Loading
Personal Weather Stations






























Interactive Weather Map
Tropical Storm Tracking
New forecast layout! Learn more

10-Day Weather Forecast

Advertisements
Track Severe Weather on mobile